Suring, Wisconsin
Current Conditions -  °F | °C
As of 1:35 PM on Thursday 23 Oct 2014 (Local Time) from KEZS Reporting Station
Light Rain Light Rain  
Wind Chill: 48°   Ceiling: 3600
Heat Index: 48°   Visibility: 5mi
Dew Point: 45°   Wind: 0mph
Humidity: 89%   Direction: NA
Pressure: 30.08"   Gusts: NA
Location:  45°N, 88.37°W
Report Text: KEZS 231835Z AUTO 00000KT 5SM -RA SCT014 BKN036 OVC044 09/07 A3008 RMK AO2 P0005 T00870070
Loading
Personal Weather Stations






























Interactive Weather Map
Tropical Storm Tracking
New forecast layout! Learn more

10-Day Weather Forecast

Advertisements
Track Severe Weather on mobile